Fort Huachuca, AZ (85613)

4:39 PM MST on September 01, 2014 (GMT -0700)
Pershing Plaza West | Change Station
CLOSE
Current Station
Personal Weather Station
Location: Fort Huachuca, AZ
Elevation: 4915 ft
Nearby Weather Stations

Elev 4915 ft 31.56 °N, 110.35 °W | Updated 7 seconds ago

Clear
Clear
92.8 °F
Feels Like 89 °F
N
5.4
Wind Variable Wind from North
Gusts 6.0 mph

Today
High -- | Low -- °F
--% Chance of Precip.
Yesterday
High -- | Low -- °F
Precip. -- in
5:57 AM 6:45 PM
Waxing Crescent, 45% visible
Pressure 29.83 in
Visibility 10.0 miles
Clouds Clear
Heat Index 89 °F
Dew Point 38 °F
Humidity 15%
Rainfall 0.00 in
Snow Depth Not available.
UV 4 out of 12
Pollen 6.70 out of 12
Air Quality Not available.
Flu Activity Not available.
METAR KFHU 012256Z AUTO 30010G16KT 10SM CLR 34/05 A3004 RMK AO2 SLP099 T03390050 $

More Conditions Fewer Conditions

Pressure 29.83 in
Visibility 10.0 miles
Clouds Clear
Heat Index 89 °F
Dew Point 38 °F
Humidity 15%
Rainfall 0.00 in
Snow Depth Not available.
UV 4 out of 12
Pollen 6.70 out of 12
Air Quality Not available.
Flu Activity Not available.
METAR KFHU 012256Z AUTO 30010G16KT 10SM CLR 34/05 A3004 RMK AO2 SLP099 T03390050 $

More Conditions Fewer Conditions

10-Day Weather Forecast

Almanac

Astronomy

Sep. 01, 2014 Rise Set
Actual Time 5:57 AM MST 6:45 PM MST
Civil Twilight 5:32 AM MST 7:09 PM MST
Nautical Twilight 5:03 AM MST 7:38 PM MST
Astronomical Twilight 4:33 AM MST 8:08 PM MST
Moon 12:21 PM MST 11:14 PM MST
Length of Visible Light 13h 37m
Length of Day
12h 47m
Tomorrow will be 1m 51s shorter.
Waxing Crescent, 45% of the Moon is Illuminated
Today
Waxing Crescent
Sep 2
First Quarter
Sep 8
Full
Sep 15
Last Quarter
Sep 24
New

Today's Extremes

State Highs State Lows

Community

WunderPhotos

Upload Photos

1,749,440 photos uploaded!

Nearby

Snow Depth

Station Depth Elevation
Workman Creek 0 in 6900 ft
Beaver Head 40 in 7990 ft

Earthquake Activity

City Distance Mag. Time & Date
No recent earthquake activity has been reported nearby.
Minimum magnitude displayed is 2.5.

Coastal Water Temperatures

Place Temperature
No Stations Reporting

Nearby Weather Stations